createdAt,value
2019-04-27T00:00:06.251Z,9.35
2019-04-27T00:01:10.578Z,9.43
2019-04-27T00:02:06.622Z,9.39
2019-04-27T00:03:06.804Z,9.40
2019-04-27T00:04:06.985Z,9.39
2019-04-27T00:05:07.166Z,9.42
2019-04-27T00:06:08.631Z,9.39
2019-04-27T00:07:07.535Z,9.46
2019-04-27T00:08:07.722Z,9.36
2019-04-27T00:09:11.540Z,9.38
2019-04-27T00:10:08.091Z,9.39
2019-04-27T00:11:08.842Z,9.38
2019-04-27T00:12:08.465Z,9.32
2019-04-27T00:13:08.649Z,9.36
2019-04-27T00:14:10.384Z,9.32
2019-04-27T00:15:09.021Z,9.23
2019-04-27T00:16:09.913Z,9.33
2019-04-27T00:17:09.392Z,9.32
2019-04-27T00:18:14.011Z,9.32
2019-04-27T00:19:09.758Z,9.35
2019-04-27T00:20:09.943Z,9.38
2019-04-27T00:21:10.127Z,9.35
2019-04-27T00:22:10.311Z,9.39
2019-04-27T00:23:10.497Z,9.33
2019-04-27T00:24:10.682Z,9.31
2019-04-27T00:25:10.864Z,9.35
2019-04-27T00:26:11.049Z,9.39
2019-04-27T00:27:11.230Z,9.29
2019-04-27T00:28:12.843Z,9.29
2019-04-27T00:29:11.590Z,9.32
2019-04-27T00:30:11.780Z,9.36
2019-04-27T00:31:13.227Z,9.32
2019-04-27T00:32:13.199Z,9.21
2019-04-27T00:33:13.666Z,9.28
2019-04-27T00:34:13.325Z,9.17
2019-04-27T00:35:13.730Z,9.20
2019-04-27T00:36:13.135Z,9.14
2019-04-27T00:37:13.631Z,9.15
2019-04-27T00:38:13.261Z,9.15
2019-04-27T00:39:13.890Z,9.18
2019-04-27T00:40:14.778Z,9.15
2019-04-27T00:41:14.278Z,9.11
2019-04-27T00:42:14.011Z,9.05
2019-04-27T00:43:14.201Z,8.96
2019-04-27T00:44:14.390Z,9.02
2019-04-27T00:45:14.572Z,9.11
2019-04-27T00:46:14.757Z,8.99
2019-04-27T00:47:14.946Z,8.98
2019-04-27T00:48:15.124Z,8.98
2019-04-27T00:49:15.306Z,9.02
2019-04-27T00:50:15.494Z,9.01
2019-04-27T00:51:15.686Z,9.08
2019-04-27T00:52:15.876Z,9.11
2019-04-27T00:53:16.064Z,9.02
2019-04-27T00:54:16.246Z,8.96
2019-04-27T00:55:16.431Z,8.76
2019-04-27T00:56:16.615Z,8.80
2019-04-27T00:57:16.796Z,8.63
2019-04-27T00:58:16.984Z,8.61
2019-04-27T00:59:17.166Z,8.50
2019-04-27T01:00:17.353Z,8.38
2019-04-27T01:01:17.547Z,8.25
2019-04-27T01:02:17.730Z,8.15
2019-04-27T01:03:17.915Z,8.00
2019-04-27T01:04:18.102Z,8.01
2019-04-27T01:05:18.283Z,8.04
2019-04-27T01:06:18.465Z,8.04
2019-04-27T01:07:18.649Z,8.01
2019-04-27T01:08:18.830Z,7.98
2019-04-27T01:09:19.020Z,8.12
2019-04-27T01:10:19.199Z,8.10
2019-04-27T01:11:19.388Z,8.10
2019-04-27T01:12:19.571Z,8.01
2019-04-27T01:13:19.757Z,8.15
2019-04-27T01:14:19.940Z,8.20
2019-04-27T01:15:20.124Z,8.18
2019-04-27T01:16:22.461Z,8.19
2019-04-27T01:17:20.488Z,8.25
2019-04-27T01:18:20.684Z,8.10
2019-04-27T01:19:20.858Z,8.20
2019-04-27T01:20:21.042Z,8.29
2019-04-27T01:21:21.225Z,8.10
2019-04-27T01:22:21.409Z,8.01
2019-04-27T01:23:21.592Z,8.05
2019-04-27T01:24:21.780Z,8.15
2019-04-27T01:25:21.977Z,8.15
2019-04-27T01:26:22.158Z,8.02
2019-04-27T01:27:22.343Z,8.05
2019-04-27T01:28:22.529Z,8.12
2019-04-27T01:29:22.714Z,8.12
2019-04-27T01:30:22.895Z,8.00
2019-04-27T01:31:23.079Z,8.04
2019-04-27T01:32:23.263Z,7.93
2019-04-27T01:33:23.458Z,7.89
2019-04-27T01:34:23.629Z,7.89
2019-04-27T01:35:23.817Z,7.90
2019-04-27T01:36:23.998Z,7.95
2019-04-27T01:37:24.175Z,7.87
2019-04-27T01:38:24.374Z,7.89
2019-04-27T01:39:24.562Z,7.98
2019-04-27T01:40:24.743Z,7.87
2019-04-27T01:41:24.936Z,7.87
2019-04-27T01:42:25.117Z,7.90
2019-04-27T01:43:25.304Z,7.83
2019-04-27T01:44:25.495Z,7.80
2019-04-27T01:45:25.676Z,7.77
2019-04-27T01:46:25.864Z,7.82
2019-04-27T01:47:26.050Z,7.86
2019-04-27T01:48:26.250Z,7.77
2019-04-27T01:49:26.415Z,7.79
2019-04-27T01:50:26.606Z,7.77
2019-04-27T01:51:26.782Z,7.75
2019-04-27T01:52:26.964Z,7.71
2019-04-27T01:53:28.611Z,7.72
2019-04-27T01:54:28.977Z,7.60
2019-04-27T01:55:27.526Z,7.79
2019-04-27T01:56:29.296Z,7.80
2019-04-27T01:57:29.430Z,7.82
2019-04-27T01:58:29.222Z,7.97
2019-04-27T01:59:29.916Z,7.98
2019-04-27T02:00:29.450Z,7.93
2019-04-27T02:01:28.853Z,8.00
2019-04-27T02:02:29.277Z,7.97
2019-04-27T02:03:33.204Z,8.04
2019-04-27T02:04:29.445Z,8.05
2019-04-27T02:05:29.357Z,8.18
2019-04-27T02:06:29.599Z,8.15
2019-04-27T02:07:30.135Z,8.10
2019-04-27T02:08:29.937Z,8.02
2019-04-27T02:09:30.125Z,8.00
2019-04-27T02:10:30.315Z,8.02
2019-04-27T02:11:30.509Z,8.04
2019-04-27T02:12:31.494Z,7.98
2019-04-27T02:13:30.867Z,7.92
2019-04-27T02:14:31.054Z,7.92
2019-04-27T02:15:31.242Z,7.89
2019-04-27T02:16:31.432Z,7.97
2019-04-27T02:17:31.613Z,7.98
2019-04-27T02:18:37.576Z,7.92
2019-04-27T02:19:31.984Z,8.00
2019-04-27T02:20:32.165Z,8.02
2019-04-27T02:21:32.350Z,8.04
2019-04-27T02:22:32.537Z,7.90
2019-04-27T02:23:32.716Z,7.92
2019-04-27T02:24:32.911Z,7.92
2019-04-27T02:25:33.084Z,8.00
2019-04-27T02:26:33.269Z,8.00
2019-04-27T02:27:33.465Z,7.97
2019-04-27T02:28:33.647Z,7.89
2019-04-27T02:29:33.834Z,7.90
2019-04-27T02:30:34.017Z,7.85
2019-04-27T02:31:34.201Z,7.87
2019-04-27T02:32:34.397Z,7.72
2019-04-27T02:33:34.582Z,7.79
2019-04-27T02:34:34.766Z,7.68
2019-04-27T02:35:34.947Z,7.69
2019-04-27T02:36:35.128Z,7.68
2019-04-27T02:37:35.318Z,7.63
2019-04-27T02:38:35.493Z,7.61
2019-04-27T02:39:35.679Z,7.68
2019-04-27T02:40:35.864Z,7.74
2019-04-27T02:41:36.045Z,7.72
2019-04-27T02:42:36.232Z,7.79
2019-04-27T02:43:36.412Z,7.71
2019-04-27T02:44:36.626Z,7.75
2019-04-27T02:45:36.783Z,7.82
2019-04-27T02:46:39.327Z,7.80
2019-04-27T02:47:37.147Z,7.92
2019-04-27T02:48:52.823Z,7.85
2019-04-27T02:49:40.372Z,7.85
2019-04-27T02:50:39.870Z,7.75
2019-04-27T02:51:40.568Z,7.90
2019-04-27T02:52:40.388Z,7.90
2019-04-27T02:53:39.208Z,7.92
2019-04-27T02:54:40.029Z,7.90
2019-04-27T02:55:39.664Z,8.02
2019-04-27T02:56:40.534Z,8.02
2019-04-27T02:57:39.962Z,7.85
2019-04-27T02:58:40.641Z,7.86
2019-04-27T02:59:40.021Z,7.93
2019-04-27T03:00:40.149Z,7.89
2019-04-27T03:01:46.243Z,7.80
2019-04-27T03:02:40.329Z,7.80
2019-04-27T03:03:41.198Z,7.87
2019-04-27T03:04:40.314Z,7.85
2019-04-27T03:05:40.468Z,7.90
2019-04-27T03:06:40.665Z,7.98
2019-04-27T03:07:42.874Z,7.95
2019-04-27T03:08:42.679Z,8.00
2019-04-27T03:09:41.205Z,7.95
2019-04-27T03:10:41.386Z,7.98
2019-04-27T03:11:41.572Z,8.07
2019-04-27T03:12:42.432Z,7.97
2019-04-27T03:13:41.936Z,8.12
2019-04-27T03:14:42.119Z,8.16
2019-04-27T03:15:42.303Z,8.16
2019-04-27T03:16:42.487Z,8.16
2019-04-27T03:17:42.675Z,8.16
2019-04-27T03:18:42.852Z,8.22
2019-04-27T03:19:43.038Z,8.28
2019-04-27T03:20:43.229Z,8.33
2019-04-27T03:21:43.410Z,8.26
2019-04-27T03:22:43.597Z,8.28
2019-04-27T03:23:43.782Z,8.36
2019-04-27T03:24:43.966Z,8.26
2019-04-27T03:25:44.148Z,8.33
2019-04-27T03:26:44.332Z,8.41
2019-04-27T03:27:44.523Z,8.36
2019-04-27T03:28:44.705Z,8.44
2019-04-27T03:29:44.917Z,8.33
2019-04-27T03:30:45.086Z,8.37
2019-04-27T03:31:47.092Z,8.33
2019-04-27T03:32:45.449Z,8.38
2019-04-27T03:33:45.637Z,8.44
2019-04-27T03:34:45.819Z,8.45
2019-04-27T03:35:46.000Z,8.38
2019-04-27T03:36:46.201Z,8.30
2019-04-27T03:37:46.378Z,8.30
2019-04-27T03:38:46.559Z,8.41
2019-04-27T03:39:46.742Z,8.37
2019-04-27T03:40:46.922Z,8.38
2019-04-27T03:41:47.108Z,8.43
2019-04-27T03:42:49.848Z,8.36
2019-04-27T03:43:47.478Z,8.48
2019-04-27T03:44:50.034Z,8.48
2019-04-27T03:45:49.719Z,8.43
2019-04-27T03:46:49.599Z,8.52
2019-04-27T03:47:50.438Z,8.40
2019-04-27T03:48:49.733Z,8.34
2019-04-27T03:49:50.755Z,8.34
2019-04-27T03:50:50.660Z,8.34
2019-04-27T03:51:49.955Z,8.36
2019-04-27T03:52:49.924Z,8.37
2019-04-27T03:53:49.763Z,8.50
2019-04-27T03:54:50.322Z,8.38
2019-04-27T03:55:50.240Z,8.44
2019-04-27T03:56:50.761Z,8.48
2019-04-27T03:57:50.075Z,8.43
2019-04-27T03:58:50.243Z,8.26
2019-04-27T03:59:50.716Z,8.43
2019-04-27T04:00:52.214Z,8.34
2019-04-27T04:01:50.797Z,8.47
2019-04-27T04:02:50.986Z,8.36
2019-04-27T04:03:51.166Z,8.43
2019-04-27T04:04:51.347Z,8.30
2019-04-27T04:05:52.065Z,8.36
2019-04-27T04:06:51.720Z,8.33
2019-04-27T04:07:51.894Z,8.28
2019-04-27T04:08:55.099Z,8.33
2019-04-27T04:09:52.269Z,8.36
2019-04-27T04:10:52.467Z,8.36
2019-04-27T04:11:52.640Z,8.37
2019-04-27T04:12:56.032Z,8.44
2019-04-27T04:13:53.014Z,8.34
2019-04-27T04:14:53.199Z,8.36
2019-04-27T04:15:53.378Z,8.37
2019-04-27T04:16:53.562Z,8.43
2019-04-27T04:17:53.749Z,8.41
2019-04-27T04:18:53.935Z,8.30
2019-04-27T04:19:58.042Z,8.33
2019-04-27T04:20:54.308Z,8.34
2019-04-27T04:21:54.486Z,8.33
2019-04-27T04:22:54.663Z,8.30
2019-04-27T04:23:54.861Z,8.34
2019-04-27T04:24:55.048Z,8.41
2019-04-27T04:25:55.234Z,8.23
2019-04-27T04:26:55.413Z,8.19
2019-04-27T04:27:55.598Z,8.19
2019-04-27T04:28:55.774Z,8.25
2019-04-27T04:29:55.966Z,8.33
2019-04-27T04:30:56.150Z,8.30
2019-04-27T04:31:56.336Z,8.36
2019-04-27T04:32:56.519Z,8.30
2019-04-27T04:33:59.501Z,8.29
2019-04-27T04:34:56.889Z,8.28
2019-04-27T04:35:59.594Z,8.33
2019-04-27T04:36:57.258Z,8.33
2019-04-27T04:37:59.985Z,8.29
2019-04-27T04:39:00.160Z,8.37
2019-04-27T04:39:59.695Z,8.36
2019-04-27T04:40:59.215Z,8.41
2019-04-27T04:41:59.702Z,8.38
2019-04-27T04:43:00.363Z,8.34
2019-04-27T04:43:59.882Z,8.29
2019-04-27T04:45:00.409Z,8.34
2019-04-27T04:45:59.562Z,8.22
2019-04-27T04:47:00.340Z,8.20
2019-04-27T04:47:59.724Z,8.22
2019-04-27T04:49:00.224Z,8.22
2019-04-27T04:50:08.484Z,8.28
2019-04-27T04:51:00.139Z,8.28
2019-04-27T04:52:00.023Z,8.29
2019-04-27T04:53:00.227Z,8.37
2019-04-27T04:54:00.389Z,8.34
2019-04-27T04:55:02.519Z,8.44
2019-04-27T04:56:00.761Z,8.45
2019-04-27T04:57:00.946Z,8.48
2019-04-27T04:58:01.131Z,8.52
2019-04-27T04:59:01.309Z,8.59
2019-04-27T05:00:01.498Z,8.66
2019-04-27T05:01:02.040Z,8.50
2019-04-27T05:02:02.476Z,8.45
2019-04-27T05:03:02.045Z,8.53
2019-04-27T05:04:02.226Z,8.47
2019-04-27T05:05:02.447Z,8.52
2019-04-27T05:06:02.639Z,8.61
2019-04-27T05:07:02.821Z,8.58
2019-04-27T05:08:03.028Z,8.66
2019-04-27T05:09:03.209Z,8.65
2019-04-27T05:10:03.398Z,8.59
2019-04-27T05:11:03.580Z,8.53
2019-04-27T05:12:03.767Z,8.45
2019-04-27T05:13:03.948Z,8.47
2019-04-27T05:14:04.139Z,8.45
2019-04-27T05:15:04.319Z,8.52
2019-04-27T05:16:04.503Z,8.52
2019-04-27T05:17:04.689Z,8.52
2019-04-27T05:18:04.872Z,8.53
2019-04-27T05:19:05.063Z,8.63
2019-04-27T05:20:05.241Z,8.70
2019-04-27T05:21:05.429Z,8.71
2019-04-27T05:22:05.613Z,8.79
2019-04-27T05:23:05.807Z,8.92
2019-04-27T05:24:05.987Z,8.81
2019-04-27T05:25:06.174Z,8.81
2019-04-27T05:26:06.355Z,8.95
2019-04-27T05:27:06.542Z,9.05
2019-04-27T05:28:06.723Z,9.13
2019-04-27T05:29:06.903Z,8.98
2019-04-27T05:30:07.092Z,8.87
2019-04-27T05:31:09.014Z,8.84
2019-04-27T05:32:09.114Z,8.94
2019-04-27T05:33:08.939Z,8.84
2019-04-27T05:34:09.402Z,8.83
2019-04-27T05:35:08.844Z,8.94
2019-04-27T05:36:09.218Z,8.83
2019-04-27T05:37:08.963Z,8.79
2019-04-27T05:38:12.715Z,8.74
2019-04-27T05:39:09.781Z,8.66
2019-04-27T05:40:09.226Z,8.80
2019-04-27T05:41:09.143Z,8.79
2019-04-27T05:42:10.978Z,8.73
2019-04-27T05:43:09.508Z,8.76
2019-04-27T05:44:12.625Z,8.86
2019-04-27T05:45:09.876Z,8.83
2019-04-27T05:46:12.363Z,8.77
2019-04-27T05:47:13.096Z,8.89
2019-04-27T05:48:10.439Z,8.84
2019-04-27T05:49:10.624Z,8.89
2019-04-27T05:50:13.513Z,9.02
2019-04-27T05:51:10.991Z,9.11
2019-04-27T05:52:14.669Z,9.23
2019-04-27T05:53:11.366Z,9.17
2019-04-27T05:54:11.554Z,9.33
2019-04-27T05:55:11.737Z,9.21
2019-04-27T05:56:11.919Z,9.32
2019-04-27T05:57:12.110Z,9.50
2019-04-27T05:58:12.293Z,9.43
2019-04-27T05:59:14.679Z,9.42
2019-04-27T06:00:12.660Z,9.43
2019-04-27T06:01:12.848Z,9.56
2019-04-27T06:02:13.030Z,9.46
2019-04-27T06:03:13.216Z,9.60
2019-04-27T06:04:13.405Z,9.66
2019-04-27T06:05:13.577Z,9.97
2019-04-27T06:06:13.766Z,10.20
2019-04-27T06:07:13.956Z,10.45
2019-04-27T06:08:14.139Z,10.63
2019-04-27T06:09:14.322Z,10.82
2019-04-27T06:10:14.505Z,10.85
2019-04-27T06:11:14.690Z,10.96
2019-04-27T06:12:14.879Z,11.03
2019-04-27T06:13:15.064Z,11.04
2019-04-27T06:14:15.250Z,11.02
2019-04-27T06:15:15.444Z,10.89
2019-04-27T06:16:15.627Z,10.91
2019-04-27T06:17:15.822Z,10.84
2019-04-27T06:18:16.009Z,11.00
2019-04-27T06:19:16.203Z,10.97
2019-04-27T06:20:16.390Z,11.69
2019-04-27T06:21:16.575Z,11.91
2019-04-27T06:22:16.763Z,12.57
2019-04-27T06:23:18.644Z,12.45
2019-04-27T06:24:18.618Z,11.80
2019-04-27T06:25:17.321Z,11.76
2019-04-27T06:26:17.510Z,12.27
2019-04-27T06:27:18.623Z,12.72
2019-04-27T06:28:19.072Z,12.42
2019-04-27T06:29:19.578Z,12.14
2019-04-27T06:30:19.294Z,12.05
2019-04-27T06:31:19.628Z,12.50
2019-04-27T06:32:19.191Z,12.92
2019-04-27T06:33:29.684Z,13.14
2019-04-27T06:34:19.491Z,13.63
2019-04-27T06:35:19.208Z,14.69
2019-04-27T06:36:19.879Z,14.35
2019-04-27T06:37:21.516Z,14.47
2019-04-27T06:38:19.776Z,14.51
2019-04-27T06:39:20.535Z,14.42
2019-04-27T06:40:20.151Z,14.47
2019-04-27T06:41:20.335Z,14.58
2019-04-27T06:42:20.821Z,14.77
2019-04-27T06:43:20.719Z,14.28
2019-04-27T06:44:20.909Z,14.33
2019-04-27T06:45:21.102Z,14.84
2019-04-27T06:46:21.298Z,15.41
2019-04-27T06:47:21.491Z,15.89
2019-04-27T06:48:21.683Z,15.71
2019-04-27T06:49:21.874Z,16.33
2019-04-27T06:50:22.063Z,16.58
2019-04-27T06:51:22.258Z,16.04
2019-04-27T06:52:22.444Z,15.92
2019-04-27T06:53:22.636Z,16.21
2019-04-27T06:54:22.832Z,16.56
2019-04-27T06:55:23.023Z,16.79
2019-04-27T06:56:23.218Z,16.09
2019-04-27T06:57:23.416Z,15.53
2019-04-27T06:58:23.612Z,15.74
2019-04-27T06:59:23.802Z,16.35
2019-04-27T07:00:23.997Z,17.28
2019-04-27T07:01:24.199Z,17.51
2019-04-27T07:02:24.384Z,17.59
2019-04-27T07:03:24.584Z,17.18
2019-04-27T07:04:24.773Z,17.44
2019-04-27T07:05:24.983Z,17.43
2019-04-27T07:06:25.192Z,18.35
2019-04-27T07:07:25.385Z,18.48
2019-04-27T07:08:25.577Z,18.62
2019-04-27T07:09:25.776Z,18.15
2019-04-27T07:10:25.976Z,18.20
2019-04-27T07:11:26.164Z,18.88
2019-04-27T07:12:26.359Z,19.06
2019-04-27T07:13:26.562Z,19.54
2019-04-27T07:14:26.760Z,19.39
2019-04-27T07:15:28.514Z,19.19
2019-04-27T07:16:27.148Z,19.94
2019-04-27T07:17:28.989Z,20.02
2019-04-27T07:18:28.608Z,20.29
2019-04-27T07:19:28.599Z,20.14
2019-04-27T07:20:28.698Z,20.52
2019-04-27T07:21:28.639Z,19.69
2019-04-27T07:22:29.846Z,20.10
2019-04-27T07:23:29.385Z,20.69
2019-04-27T07:24:29.262Z,19.59
2019-04-27T07:25:28.970Z,19.80
2019-04-27T07:26:30.356Z,20.11
2019-04-27T07:27:29.361Z,19.76
2019-04-27T07:28:29.508Z,19.59
2019-04-27T07:29:29.703Z,20.26
2019-04-27T07:30:29.907Z,19.68
2019-04-27T07:31:31.884Z,19.21
2019-04-27T07:32:30.306Z,19.19
2019-04-27T07:33:30.506Z,18.88
2019-04-27T07:34:30.725Z,19.71
2019-04-27T07:35:30.903Z,20.03
2019-04-27T07:36:31.096Z,20.54
2019-04-27T07:37:31.296Z,20.70
2019-04-27T07:38:31.491Z,20.29
2019-04-27T07:39:31.693Z,20.29
2019-04-27T07:40:31.883Z,20.23
2019-04-27T07:41:32.091Z,20.14
2019-04-27T07:42:32.319Z,20.20
2019-04-27T07:43:32.496Z,20.20
2019-04-27T07:44:32.696Z,19.48
2019-04-27T07:45:32.903Z,19.18
2019-04-27T07:46:33.097Z,19.07
2019-04-27T07:47:33.294Z,19.16
2019-04-27T07:48:33.494Z,19.43
2019-04-27T07:49:33.691Z,19.86
2019-04-27T07:50:33.884Z,19.92
2019-04-27T07:51:34.447Z,20.55
2019-04-27T07:52:34.311Z,21.09
2019-04-27T07:53:34.504Z,21.72
2019-04-27T07:54:34.699Z,21.31
2019-04-27T07:55:34.895Z,21.19
2019-04-27T07:56:35.102Z,21.35
2019-04-27T07:57:35.299Z,20.47
2019-04-27T07:58:35.503Z,21.03
2019-04-27T07:59:35.698Z,20.54
2019-04-27T08:00:35.894Z,19.14
2019-04-27T08:01:36.104Z,18.32
2019-04-27T08:02:36.301Z,17.86
2019-04-27T08:03:36.515Z,17.26
2019-04-27T08:04:36.701Z,17.19
2019-04-27T08:05:36.882Z,17.01
2019-04-27T08:06:38.733Z,17.04
2019-04-27T08:07:38.978Z,16.75
2019-04-27T08:08:37.494Z,16.39
2019-04-27T08:09:39.621Z,15.53
2019-04-27T08:10:39.205Z,15.29
2019-04-27T08:11:39.100Z,14.96
2019-04-27T08:12:38.658Z,14.91
2019-04-27T08:13:39.390Z,14.98
2019-04-27T08:14:38.672Z,15.19
2019-04-27T08:15:39.627Z,15.02
2019-04-27T08:16:39.068Z,14.91
2019-04-27T08:17:42.435Z,15.09
2019-04-27T08:18:39.668Z,15.74
2019-04-27T08:19:39.666Z,15.53
2019-04-27T08:20:39.841Z,15.36
2019-04-27T08:21:44.525Z,15.46
2019-04-27T08:22:40.229Z,15.27
2019-04-27T08:23:40.424Z,15.34
2019-04-27T08:24:40.624Z,15.39
2019-04-27T08:25:40.811Z,15.49
2019-04-27T08:26:41.007Z,15.57
2019-04-27T08:27:41.204Z,15.50
2019-04-27T08:28:41.403Z,15.36
2019-04-27T08:29:41.591Z,14.94
2019-04-27T08:30:41.782Z,14.89
2019-04-27T08:31:41.979Z,14.92
2019-04-27T08:32:42.169Z,14.96
2019-04-27T08:33:42.365Z,14.89
2019-04-27T08:34:42.556Z,14.77
2019-04-27T08:35:42.758Z,14.75
2019-04-27T08:36:42.950Z,14.55
2019-04-27T08:37:43.142Z,14.57
2019-04-27T08:38:43.342Z,15.78
2019-04-27T08:39:43.532Z,17.33
2019-04-27T08:40:43.709Z,17.84
2019-04-27T08:41:43.897Z,17.75
2019-04-27T08:42:44.093Z,17.49
2019-04-27T08:43:44.284Z,18.62
2019-04-27T08:44:44.476Z,18.82
2019-04-27T08:45:44.670Z,19.40
2019-04-27T08:46:44.859Z,19.74
2019-04-27T08:47:45.068Z,19.23
2019-04-27T08:48:45.254Z,19.83
2019-04-27T08:49:45.457Z,19.81
2019-04-27T08:50:45.649Z,20.08
2019-04-27T08:51:56.357Z,19.91
2019-04-27T08:52:46.036Z,19.92
2019-04-27T08:53:46.233Z,19.13
2019-04-27T08:54:46.431Z,18.00
2019-04-27T08:55:46.643Z,17.59
2019-04-27T08:56:46.828Z,17.52
2019-04-27T08:57:48.802Z,18.85
2019-04-27T08:58:47.217Z,18.36
2019-04-27T08:59:49.266Z,17.48
2019-04-27T09:00:49.044Z,17.03
2019-04-27T09:01:49.280Z,16.76
2019-04-27T09:02:49.976Z,16.71
2019-04-27T09:03:49.526Z,16.31
2019-04-27T09:04:49.542Z,17.49
2019-04-27T09:05:49.052Z,18.92
2019-04-27T09:06:49.333Z,19.94
2019-04-27T09:07:49.668Z,19.25
2019-04-27T09:08:49.691Z,17.59
2019-04-27T09:09:49.807Z,17.89
2019-04-27T09:10:49.550Z,18.27
2019-04-27T09:11:49.737Z,19.40
2019-04-27T09:12:53.146Z,18.85
2019-04-27T09:13:50.119Z,18.42
2019-04-27T09:14:50.319Z,17.90
2019-04-27T09:15:50.545Z,18.30
2019-04-27T09:16:59.590Z,19.13
2019-04-27T09:17:50.899Z,19.39
2019-04-27T09:18:51.107Z,18.62
2019-04-27T09:19:51.298Z,18.35
2019-04-27T09:20:51.492Z,19.46
2019-04-27T09:21:51.700Z,19.69
2019-04-27T09:22:51.876Z,19.59
2019-04-27T09:23:52.076Z,20.16
2019-04-27T09:24:52.273Z,19.21
2019-04-27T09:25:52.472Z,18.51
2019-04-27T09:26:52.657Z,18.45
2019-04-27T09:27:52.867Z,17.81
2019-04-27T09:28:53.054Z,17.63
2019-04-27T09:29:53.249Z,17.62
2019-04-27T09:30:53.444Z,17.11
2019-04-27T09:31:53.640Z,16.89
2019-04-27T09:32:53.829Z,16.94
2019-04-27T09:33:54.026Z,16.76
2019-04-27T09:34:54.222Z,16.42
2019-04-27T09:35:54.409Z,16.21
2019-04-27T09:36:54.603Z,16.01
2019-04-27T09:37:56.311Z,15.94
2019-04-27T09:38:56.496Z,15.74
2019-04-27T09:39:56.135Z,15.75
2019-04-27T09:40:55.913Z,15.60
2019-04-27T09:41:57.180Z,15.56
2019-04-27T09:42:57.248Z,15.46
2019-04-27T09:43:55.972Z,15.38
2019-04-27T09:44:56.165Z,15.34
2019-04-27T09:45:56.363Z,15.25
2019-04-27T09:46:56.549Z,15.14
2019-04-27T09:47:56.737Z,15.20
2019-04-27T09:48:56.931Z,15.20
2019-04-27T09:49:57.119Z,15.09
2019-04-27T09:50:57.309Z,15.11
2019-04-27T09:51:57.510Z,15.02
2019-04-27T09:52:57.696Z,14.89
2019-04-27T09:53:57.893Z,14.96
2019-04-27T09:54:58.088Z,14.91
2019-04-27T09:55:58.277Z,14.84
2019-04-27T09:56:58.462Z,14.86
2019-04-27T09:57:58.656Z,14.88
2019-04-27T09:58:58.848Z,14.81
2019-04-27T09:59:59.039Z,14.83
2019-04-27T10:00:59.221Z,14.78
2019-04-27T10:01:59.417Z,14.83
2019-04-27T10:02:59.606Z,14.64
2019-04-27T10:03:59.792Z,14.58
2019-04-27T10:04:59.980Z,14.69
2019-04-27T10:06:00.167Z,14.73
2019-04-27T10:07:00.364Z,14.64
2019-04-27T10:08:00.555Z,14.72
2019-04-27T10:09:00.837Z,14.58
2019-04-27T10:10:00.927Z,14.55
2019-04-27T10:11:01.116Z,14.45
2019-04-27T10:12:01.312Z,14.54
2019-04-27T10:13:01.503Z,14.47
2019-04-27T10:14:01.683Z,14.45
2019-04-27T10:15:01.877Z,14.45
2019-04-27T10:16:02.066Z,14.35
2019-04-27T10:17:02.264Z,14.27
2019-04-27T10:18:02.447Z,14.25
2019-04-27T10:19:02.632Z,14.25
2019-04-27T10:20:02.827Z,14.27
2019-04-27T10:21:03.017Z,14.33
2019-04-27T10:22:03.241Z,14.25
2019-04-27T10:23:03.392Z,14.20
2019-04-27T10:24:03.578Z,14.28
2019-04-27T10:25:03.769Z,14.22
2019-04-27T10:26:05.753Z,14.21
2019-04-27T10:27:05.537Z,14.17
2019-04-27T10:28:04.346Z,14.17
2019-04-27T10:29:06.067Z,14.09
2019-04-27T10:30:05.814Z,13.92
2019-04-27T10:31:06.877Z,13.91
2019-04-27T10:32:06.313Z,13.88
2019-04-27T10:33:07.743Z,13.89
2019-04-27T10:34:05.975Z,13.82
2019-04-27T10:35:07.633Z,13.84
2019-04-27T10:36:06.508Z,13.85
2019-04-27T10:37:06.197Z,13.75
2019-04-27T10:38:06.246Z,13.78
2019-04-27T10:39:06.439Z,13.71
2019-04-27T10:40:06.625Z,13.75
2019-04-27T10:41:07.704Z,13.63
2019-04-27T10:42:07.011Z,13.67
2019-04-27T10:43:07.199Z,13.66
2019-04-27T10:44:07.669Z,13.63
2019-04-27T10:45:07.599Z,13.67
2019-04-27T10:46:07.771Z,13.54
2019-04-27T10:47:07.967Z,13.55
2019-04-27T10:48:08.169Z,13.52
2019-04-27T10:49:08.339Z,13.54
2019-04-27T10:50:08.527Z,13.39
2019-04-27T10:51:08.714Z,13.42
2019-04-27T10:52:08.924Z,13.45
2019-04-27T10:53:09.144Z,13.25
2019-04-27T10:54:09.330Z,13.25
2019-04-27T10:55:09.521Z,13.23
2019-04-27T10:56:09.691Z,13.25
2019-04-27T10:57:09.888Z,13.36
2019-04-27T10:58:10.089Z,13.39
2019-04-27T10:59:10.270Z,13.33
2019-04-27T11:00:10.478Z,13.36
2019-04-27T11:01:10.689Z,13.32
2019-04-27T11:02:10.867Z,13.36
2019-04-27T11:03:11.122Z,13.54
2019-04-27T11:04:11.230Z,13.52
2019-04-27T11:05:11.387Z,13.62
2019-04-27T11:06:11.585Z,13.64
2019-04-27T11:07:11.776Z,13.62
2019-04-27T11:08:11.966Z,13.64
2019-04-27T11:09:12.183Z,13.57
2019-04-27T11:10:12.381Z,13.60
2019-04-27T11:11:12.556Z,13.62
2019-04-27T11:12:12.751Z,13.66
2019-04-27T11:13:12.936Z,13.71
2019-04-27T11:14:13.131Z,13.75
2019-04-27T11:15:13.325Z,13.75
2019-04-27T11:16:13.553Z,13.75
2019-04-27T11:17:13.780Z,13.75
2019-04-27T11:18:13.935Z,13.78
2019-04-27T11:19:14.130Z,13.75
2019-04-27T11:20:14.306Z,13.70
2019-04-27T11:21:15.795Z,13.60
2019-04-27T11:22:15.952Z,13.67
2019-04-27T11:23:16.417Z,13.70
2019-04-27T11:24:15.056Z,13.63
2019-04-27T11:25:16.428Z,13.64
2019-04-27T11:26:16.057Z,13.67
2019-04-27T11:27:15.628Z,13.67
2019-04-27T11:28:15.834Z,13.62
2019-04-27T11:29:16.001Z,13.54
2019-04-27T11:30:16.195Z,13.64
2019-04-27T11:31:17.251Z,13.52
2019-04-27T11:32:16.576Z,13.44
2019-04-27T11:33:16.758Z,13.32
2019-04-27T11:34:16.950Z,13.22
2019-04-27T11:35:17.132Z,13.33
2019-04-27T11:36:17.325Z,13.48
2019-04-27T11:37:17.506Z,13.62
2019-04-27T11:38:17.694Z,13.69
2019-04-27T11:39:21.015Z,13.71
2019-04-27T11:40:18.069Z,13.77
2019-04-27T11:41:18.254Z,13.77
2019-04-27T11:42:18.440Z,13.89
2019-04-27T11:43:18.632Z,14.02
2019-04-27T11:44:18.837Z,14.00
2019-04-27T11:45:19.015Z,13.87
2019-04-27T11:46:19.205Z,13.70
2019-04-27T11:47:19.398Z,13.63
2019-04-27T11:48:19.582Z,13.57
2019-04-27T11:49:19.792Z,13.55
2019-04-27T11:50:19.987Z,13.55
2019-04-27T11:51:20.176Z,13.38
2019-04-27T11:52:20.374Z,13.33
2019-04-27T11:53:23.073Z,13.33
2019-04-27T11:54:20.768Z,13.42
2019-04-27T11:55:20.951Z,13.57
2019-04-27T11:56:21.141Z,13.71
2019-04-27T11:57:21.326Z,13.81
2019-04-27T11:58:21.519Z,14.17
2019-04-27T11:59:21.708Z,14.32
2019-04-27T12:00:21.902Z,14.58
2019-04-27T12:01:22.098Z,14.25
2019-04-27T12:02:22.291Z,14.18
2019-04-27T12:03:22.475Z,14.14
2019-04-27T12:04:22.664Z,14.22
2019-04-27T12:05:22.859Z,14.21
2019-04-27T12:06:23.045Z,13.95
2019-04-27T12:07:23.236Z,13.91
2019-04-27T12:08:23.430Z,13.71
2019-04-27T12:09:23.608Z,13.54
2019-04-27T12:10:23.803Z,13.55
2019-04-27T12:11:23.987Z,13.39
2019-04-27T12:12:24.170Z,13.14
2019-04-27T12:13:25.895Z,13.01
2019-04-27T12:14:24.552Z,12.97
2019-04-27T12:15:26.281Z,12.85
2019-04-27T12:16:26.202Z,12.90
2019-04-27T12:17:26.725Z,12.89
2019-04-27T12:18:25.337Z,12.87
2019-04-27T12:19:26.852Z,12.97
2019-04-27T12:20:26.006Z,13.12
2019-04-27T12:21:25.897Z,13.10
2019-04-27T12:22:26.098Z,13.10
2019-04-27T12:23:33.670Z,13.11
2019-04-27T12:24:26.795Z,13.11
2019-04-27T12:25:26.651Z,13.11
2019-04-27T12:26:26.842Z,13.20
2019-04-27T12:27:27.031Z,13.29
2019-04-27T12:28:27.348Z,13.38
2019-04-27T12:29:27.407Z,13.33
2019-04-27T12:30:27.597Z,13.25
2019-04-27T12:31:27.796Z,13.44
2019-04-27T12:32:27.983Z,13.52
2019-04-27T12:33:28.217Z,13.54
2019-04-27T12:34:28.373Z,13.45
2019-04-27T12:35:28.560Z,13.57
2019-04-27T12:36:28.773Z,13.59
2019-04-27T12:37:28.944Z,13.55
2019-04-27T12:38:29.127Z,13.67
2019-04-27T12:39:29.332Z,13.67
2019-04-27T12:40:29.516Z,13.57
2019-04-27T12:41:29.735Z,13.59
2019-04-27T12:42:29.892Z,13.62
2019-04-27T12:43:30.082Z,13.54
2019-04-27T12:44:30.270Z,13.55
2019-04-27T12:45:30.468Z,13.51
2019-04-27T12:46:30.648Z,13.41
2019-04-27T12:47:30.837Z,13.20
2019-04-27T12:48:31.020Z,13.20
2019-04-27T12:49:31.208Z,13.11
2019-04-27T12:50:31.399Z,13.07
2019-04-27T12:51:31.584Z,13.01
2019-04-27T12:52:31.774Z,13.05
2019-04-27T12:53:32.030Z,12.95
2019-04-27T12:54:32.162Z,13.05
2019-04-27T12:55:32.354Z,13.04
2019-04-27T12:56:32.541Z,13.11
2019-04-27T12:57:32.740Z,13.19
2019-04-27T12:58:32.937Z,13.22
2019-04-27T12:59:33.124Z,13.38
2019-04-27T13:00:33.337Z,13.59
2019-04-27T13:01:33.504Z,13.81
2019-04-27T13:02:33.691Z,13.97
2019-04-27T13:03:33.876Z,14.10
2019-04-27T13:04:34.068Z,14.35
2019-04-27T13:05:35.888Z,14.54
2019-04-27T13:06:35.803Z,14.65